sensor_id;sensor_type;location;lat;lon;timestamp;P1;durP1;ratioP1;P2;durP2;ratioP2
39612;SDS011;25303;48.896;13.342;2022-12-01T00:02:02;2.90;;;1.30;;
39612;SDS011;25303;48.896;13.342;2022-12-01T00:07:29;1.75;;;1.15;;
39612;SDS011;25303;48.896;13.342;2022-12-01T00:10:12;2.50;;;1.35;;
39612;SDS011;25303;48.896;13.342;2022-12-01T00:13:06;2.67;;;1.20;;
39612;SDS011;25303;48.896;13.342;2022-12-01T00:15:49;3.15;;;1.10;;
39612;SDS011;25303;48.896;13.342;2022-12-01T00:18:33;2.35;;;1.27;;
39612;SDS011;25303;48.896;13.342;2022-12-01T00:21:17;3.13;;;1.42;;
39612;SDS011;25303;48.896;13.342;2022-12-01T00:24:01;1.90;;;1.20;;
39612;SDS011;25303;48.896;13.342;2022-12-01T00:26:44;2.00;;;1.08;;
39612;SDS011;25303;48.896;13.342;2022-12-01T00:29:27;2.90;;;1.20;;
39612;SDS011;25303;48.896;13.342;2022-12-01T00:32:10;2.35;;;1.10;;
39612;SDS011;25303;48.896;13.342;2022-12-01T00:34:54;2.60;;;1.42;;
39612;SDS011;25303;48.896;13.342;2022-12-01T00:37:37;2.20;;;1.08;;
39612;SDS011;25303;48.896;13.342;2022-12-01T00:40:20;3.13;;;1.25;;
39612;SDS011;25303;48.896;13.342;2022-12-01T00:43:03;2.30;;;1.10;;
39612;SDS011;25303;48.896;13.342;2022-12-01T00:45:46;2.30;;;1.00;;
39612;SDS011;25303;48.896;13.342;2022-12-01T00:48:29;1.55;;;1.02;;
39612;SDS011;25303;48.896;13.342;2022-12-01T00:51:14;1.98;;;1.08;;
39612;SDS011;25303;48.896;13.342;2022-12-01T00:53:57;1.60;;;0.93;;
39612;SDS011;25303;48.896;13.342;2022-12-01T00:56:40;2.25;;;0.93;;
39612;SDS011;25303;48.896;13.342;2022-12-01T00:59:22;2.08;;;1.10;;
39612;SDS011;25303;48.896;13.342;2022-12-01T01:02:06;3.25;;;1.10;;
39612;SDS011;25303;48.896;13.342;2022-12-01T01:04:49;1.70;;;1.02;;
39612;SDS011;25303;48.896;13.342;2022-12-01T01:07:34;1.50;;;0.82;;
39612;SDS011;25303;48.896;13.342;2022-12-01T01:10:17;1.45;;;1.00;;
39612;SDS011;25303;48.896;13.342;2022-12-01T01:13:00;1.73;;;1.00;;
39612;SDS011;25303;48.896;13.342;2022-12-01T01:15:43;1.83;;;1.00;;
39612;SDS011;25303;48.896;13.342;2022-12-01T01:18:26;2.53;;;1.00;;
39612;SDS011;25303;48.896;13.342;2022-12-01T01:21:10;2.20;;;1.23;;
39612;SDS011;25303;48.896;13.342;2022-12-01T01:23:56;2.22;;;1.10;;
39612;SDS011;25303;48.896;13.342;2022-12-01T01:26:39;1.60;;;1.08;;
39612;SDS011;25303;48.896;13.342;2022-12-01T01:29:22;1.42;;;0.90;;
39612;SDS011;25303;48.896;13.342;2022-12-01T01:32:05;1.50;;;0.90;;
39612;SDS011;25303;48.896;13.342;2022-12-01T01:34:48;2.20;;;1.23;;
39612;SDS011;25303;48.896;13.342;2022-12-01T01:37:31;2.28;;;1.20;;
39612;SDS011;25303;48.896;13.342;2022-12-01T01:40:15;1.80;;;1.05;;
39612;SDS011;25303;48.896;13.342;2022-12-01T01:42:59;2.00;;;1.10;;
39612;SDS011;25303;48.896;13.342;2022-12-01T01:45:42;3.35;;;1.20;;
39612;SDS011;25303;48.896;13.342;2022-12-01T01:48:25;2.08;;;1.00;;
39612;SDS011;25303;48.896;13.342;2022-12-01T01:51:08;2.67;;;1.40;;
39612;SDS011;25303;48.896;13.342;2022-12-01T01:53:55;1.55;;;0.90;;
39612;SDS011;25303;48.896;13.342;2022-12-01T01:56:44;2.25;;;1.30;;
39612;SDS011;25303;48.896;13.342;2022-12-01T01:59:30;3.10;;;1.17;;
39612;SDS011;25303;48.896;13.342;2022-12-01T02:02:17;2.47;;;1.30;;
39612;SDS011;25303;48.896;13.342;2022-12-01T02:05:00;2.00;;;1.08;;
39612;SDS011;25303;48.896;13.342;2022-12-01T02:07:44;1.63;;;1.00;;
39612;SDS011;25303;48.896;13.342;2022-12-01T02:10:31;2.88;;;1.25;;
39612;SDS011;25303;48.896;13.342;2022-12-01T02:13:23;2.72;;;1.40;;
39612;SDS011;25303;48.896;13.342;2022-12-01T02:16:15;2.22;;;1.13;;
39612;SDS011;25303;48.896;13.342;2022-12-01T02:19:06;2.53;;;1.10;;
39612;SDS011;25303;48.896;13.342;2022-12-01T02:22:06;1.85;;;1.00;;
39612;SDS011;25303;48.896;13.342;2022-12-01T02:25:12;1.63;;;0.90;;
39612;SDS011;25303;48.896;13.342;2022-12-01T02:31:17;1.60;;;0.90;;
39612;SDS011;25303;48.896;13.342;2022-12-01T02:34:05;2.40;;;1.10;;
39612;SDS011;25303;48.896;13.342;2022-12-01T02:36:53;1.63;;;0.80;;
39612;SDS011;25303;48.896;13.342;2022-12-01T02:39:42;1.88;;;1.00;;
39612;SDS011;25303;48.896;13.342;2022-12-01T02:42:35;2.58;;;1.20;;
39612;SDS011;25303;48.896;13.342;2022-12-01T02:45:34;1.60;;;0.90;;
39612;SDS011;25303;48.896;13.342;2022-12-01T02:48:24;1.90;;;1.00;;
39612;SDS011;25303;48.896;13.342;2022-12-01T02:51:12;1.50;;;0.80;;
39612;SDS011;25303;48.896;13.342;2022-12-01T02:53:58;1.40;;;0.85;;
39612;SDS011;25303;48.896;13.342;2022-12-01T02:56:43;1.98;;;0.85;;
39612;SDS011;25303;48.896;13.342;2022-12-01T02:59:27;1.63;;;0.88;;
39612;SDS011;25303;48.896;13.342;2022-12-01T03:02:11;1.27;;;0.80;;
39612;SDS011;25303;48.896;13.342;2022-12-01T03:05:02;2.30;;;1.10;;
39612;SDS011;25303;48.896;13.342;2022-12-01T03:07:50;1.50;;;0.80;;
39612;SDS011;25303;48.896;13.342;2022-12-01T03:10:41;1.27;;;0.85;;
39612;SDS011;25303;48.896;13.342;2022-12-01T03:13:31;1.92;;;1.00;;
39612;SDS011;25303;48.896;13.342;2022-12-01T03:16:24;1.63;;;0.82;;
39612;SDS011;25303;48.896;13.342;2022-12-01T03:19:12;1.92;;;1.00;;
39612;SDS011;25303;48.896;13.342;2022-12-01T03:22:00;2.47;;;1.20;;
39612;SDS011;25303;48.896;13.342;2022-12-01T03:24:47;1.58;;;0.90;;
39612;SDS011;25303;48.896;13.342;2022-12-01T03:27:33;2.60;;;1.23;;
39612;SDS011;25303;48.896;13.342;2022-12-01T03:30:31;2.35;;;0.80;;
39612;SDS011;25303;48.896;13.342;2022-12-01T03:33:17;2.22;;;1.00;;
39612;SDS011;25303;48.896;13.342;2022-12-01T03:36:06;1.80;;;0.90;;
39612;SDS011;25303;48.896;13.342;2022-12-01T03:38:57;2.05;;;0.90;;
39612;SDS011;25303;48.896;13.342;2022-12-01T03:41:46;2.50;;;1.00;;
39612;SDS011;25303;48.896;13.342;2022-12-01T03:44:35;1.60;;;0.80;;
39612;SDS011;25303;48.896;13.342;2022-12-01T03:47:22;1.98;;;0.90;;
39612;SDS011;25303;48.896;13.342;2022-12-01T03:50:10;2.28;;;0.93;;
39612;SDS011;25303;48.896;13.342;2022-12-01T03:52:57;1.98;;;1.00;;
39612;SDS011;25303;48.896;13.342;2022-12-01T03:55:49;2.15;;;1.00;;
39612;SDS011;25303;48.896;13.342;2022-12-01T03:58:39;1.98;;;1.05;;
39612;SDS011;25303;48.896;13.342;2022-12-01T04:01:28;5.30;;;1.10;;
39612;SDS011;25303;48.896;13.342;2022-12-01T04:04:13;2.65;;;1.17;;
39612;SDS011;25303;48.896;13.342;2022-12-01T04:06:56;2.53;;;1.23;;
39612;SDS011;25303;48.896;13.342;2022-12-01T04:09:40;3.35;;;1.40;;
39612;SDS011;25303;48.896;13.342;2022-12-01T04:12:24;2.20;;;1.27;;
39612;SDS011;25303;48.896;13.342;2022-12-01T04:15:14;3.88;;;1.48;;
39612;SDS011;25303;48.896;13.342;2022-12-01T04:17:57;2.75;;;1.42;;
39612;SDS011;25303;48.896;13.342;2022-12-01T04:20:40;3.15;;;1.80;;
39612;SDS011;25303;48.896;13.342;2022-12-01T04:23:24;4.50;;;1.67;;
39612;SDS011;25303;48.896;13.342;2022-12-01T04:26:20;2.85;;;1.33;;
39612;SDS011;25303;48.896;13.342;2022-12-01T04:29:05;3.25;;;1.50;;
39612;SDS011;25303;48.896;13.342;2022-12-01T04:31:49;2.38;;;1.25;;
39612;SDS011;25303;48.896;13.342;2022-12-01T04:34:32;2.05;;;1.10;;
39612;SDS011;25303;48.896;13.342;2022-12-01T04:37:15;2.47;;;1.10;;
39612;SDS011;25303;48.896;13.342;2022-12-01T04:39:59;3.00;;;1.20;;
39612;SDS011;25303;48.896;13.342;2022-12-01T04:42:42;2.75;;;1.40;;
39612;SDS011;25303;48.896;13.342;2022-12-01T04:45:26;2.80;;;1.45;;
39612;SDS011;25303;48.896;13.342;2022-12-01T04:48:09;2.03;;;1.10;;
39612;SDS011;25303;48.896;13.342;2022-12-01T04:50:52;2.00;;;1.00;;
39612;SDS011;25303;48.896;13.342;2022-12-01T04:53:35;2.30;;;1.27;;
39612;SDS011;25303;48.896;13.342;2022-12-01T04:56:19;1.90;;;1.17;;
39612;SDS011;25303;48.896;13.342;2022-12-01T04:59:02;1.88;;;1.10;;
39612;SDS011;25303;48.896;13.342;2022-12-01T05:01:46;1.90;;;1.20;;
39612;SDS011;25303;48.896;13.342;2022-12-01T05:04:29;1.70;;;0.90;;
39612;SDS011;25303;48.896;13.342;2022-12-01T05:09:58;1.38;;;0.70;;
39612;SDS011;25303;48.896;13.342;2022-12-01T05:12:41;2.45;;;0.90;;
39612;SDS011;25303;48.896;13.342;2022-12-01T05:15:24;3.60;;;1.08;;
39612;SDS011;25303;48.896;13.342;2022-12-01T05:18:08;1.27;;;0.70;;
39612;SDS011;25303;48.896;13.342;2022-12-01T05:20:51;1.85;;;1.02;;
39612;SDS011;25303;48.896;13.342;2022-12-01T05:23:39;2.33;;;1.17;;
39612;SDS011;25303;48.896;13.342;2022-12-01T05:26:22;1.83;;;1.10;;
39612;SDS011;25303;48.896;13.342;2022-12-01T05:29:05;1.77;;;1.00;;
39612;SDS011;25303;48.896;13.342;2022-12-01T05:31:48;1.98;;;1.00;;
39612;SDS011;25303;48.896;13.342;2022-12-01T05:34:33;1.88;;;0.80;;
39612;SDS011;25303;48.896;13.342;2022-12-01T05:37:15;1.45;;;0.70;;
39612;SDS011;25303;48.896;13.342;2022-12-01T05:39:59;2.13;;;0.90;;
39612;SDS011;25303;48.896;13.342;2022-12-01T05:42:42;1.17;;;0.65;;
39612;SDS011;25303;48.896;13.342;2022-12-01T05:45:25;1.00;;;0.70;;
39612;SDS011;25303;48.896;13.342;2022-12-01T05:48:08;1.45;;;0.60;;
39612;SDS011;25303;48.896;13.342;2022-12-01T05:50:53;1.20;;;0.80;;
39612;SDS011;25303;48.896;13.342;2022-12-01T05:53:35;1.17;;;0.68;;
39612;SDS011;25303;48.896;13.342;2022-12-01T05:56:18;1.63;;;0.80;;
39612;SDS011;25303;48.896;13.342;2022-12-01T05:59:02;1.08;;;0.60;;
39612;SDS011;25303;48.896;13.342;2022-12-01T06:01:45;1.13;;;0.68;;
39612;SDS011;25303;48.896;13.342;2022-12-01T06:04:28;1.35;;;0.80;;
39612;SDS011;25303;48.896;13.342;2022-12-01T06:07:12;1.90;;;0.80;;
39612;SDS011;25303;48.896;13.342;2022-12-01T06:09:55;1.25;;;0.60;;
39612;SDS011;25303;48.896;13.342;2022-12-01T06:12:38;1.23;;;0.70;;
39612;SDS011;25303;48.896;13.342;2022-12-01T06:15:21;1.98;;;0.70;;
39612;SDS011;25303;48.896;13.342;2022-12-01T06:18:04;1.33;;;0.70;;
39612;SDS011;25303;48.896;13.342;2022-12-01T06:20:48;1.60;;;0.80;;
39612;SDS011;25303;48.896;13.342;2022-12-01T06:23:32;1.63;;;0.77;;
39612;SDS011;25303;48.896;13.342;2022-12-01T06:26:15;1.83;;;0.93;;
39612;SDS011;25303;48.896;13.342;2022-12-01T06:28:58;1.48;;;0.70;;
39612;SDS011;25303;48.896;13.342;2022-12-01T06:31:41;2.45;;;0.98;;
39612;SDS011;25303;48.896;13.342;2022-12-01T06:34:24;2.25;;;0.93;;
39612;SDS011;25303;48.896;13.342;2022-12-01T06:37:07;2.28;;;1.10;;
39612;SDS011;25303;48.896;13.342;2022-12-01T06:39:52;2.17;;;0.93;;
39612;SDS011;25303;48.896;13.342;2022-12-01T06:42:35;1.98;;;1.05;;
39612;SDS011;25303;48.896;13.342;2022-12-01T06:45:18;2.15;;;1.10;;
39612;SDS011;25303;48.896;13.342;2022-12-01T06:48:01;1.98;;;1.10;;
39612;SDS011;25303;48.896;13.342;2022-12-01T06:50:44;4.93;;;2.88;;
39612;SDS011;25303;48.896;13.342;2022-12-01T06:53:27;4.57;;;2.78;;
39612;SDS011;25303;48.896;13.342;2022-12-01T06:56:12;3.75;;;1.80;;
39612;SDS011;25303;48.896;13.342;2022-12-01T06:58:55;3.03;;;1.40;;
39612;SDS011;25303;48.896;13.342;2022-12-01T07:01:39;4.88;;;1.60;;
39612;SDS011;25303;48.896;13.342;2022-12-01T07:04:22;2.42;;;1.25;;
39612;SDS011;25303;48.896;13.342;2022-12-01T07:07:05;3.20;;;1.45;;
39612;SDS011;25303;48.896;13.342;2022-12-01T07:09:48;2.03;;;1.10;;
39612;SDS011;25303;48.896;13.342;2022-12-01T07:12:33;2.20;;;1.10;;
39612;SDS011;25303;48.896;13.342;2022-12-01T07:15:16;2.28;;;1.08;;
39612;SDS011;25303;48.896;13.342;2022-12-01T07:17:59;2.20;;;1.20;;
39612;SDS011;25303;48.896;13.342;2022-12-01T07:20:42;2.63;;;1.33;;
39612;SDS011;25303;48.896;13.342;2022-12-01T07:23:25;2.38;;;1.20;;
39612;SDS011;25303;48.896;13.342;2022-12-01T07:26:09;2.35;;;1.30;;
39612;SDS011;25303;48.896;13.342;2022-12-01T07:28:55;1.77;;;1.02;;
39612;SDS011;25303;48.896;13.342;2022-12-01T07:31:38;2.45;;;1.70;;
39612;SDS011;25303;48.896;13.342;2022-12-01T07:39:51;2.53;;;1.30;;
39612;SDS011;25303;48.896;13.342;2022-12-01T07:42:34;2.20;;;1.30;;
39612;SDS011;25303;48.896;13.342;2022-12-01T07:45:17;2.20;;;1.20;;
39612;SDS011;25303;48.896;13.342;2022-12-01T07:48:00;2.10;;;1.33;;
39612;SDS011;25303;48.896;13.342;2022-12-01T07:50:43;2.30;;;1.10;;
39612;SDS011;25303;48.896;13.342;2022-12-01T07:53:26;2.03;;;1.10;;
39612;SDS011;25303;48.896;13.342;2022-12-01T07:56:10;2.10;;;1.10;;
39612;SDS011;25303;48.896;13.342;2022-12-01T07:58:54;3.22;;;1.48;;
39612;SDS011;25303;48.896;13.342;2022-12-01T08:01:37;1.90;;;1.00;;
39612;SDS011;25303;48.896;13.342;2022-12-01T08:04:25;2.53;;;1.08;;
39612;SDS011;25303;48.896;13.342;2022-12-01T08:07:08;2.35;;;1.02;;
39612;SDS011;25303;48.896;13.342;2022-12-01T08:09:51;2.25;;;1.10;;
39612;SDS011;25303;48.896;13.342;2022-12-01T08:12:35;2.13;;;1.10;;
39612;SDS011;25303;48.896;13.342;2022-12-01T08:15:18;1.88;;;1.13;;
39612;SDS011;25303;48.896;13.342;2022-12-01T08:18:01;2.03;;;1.10;;
39612;SDS011;25303;48.896;13.342;2022-12-01T08:20:44;1.45;;;1.00;;
39612;SDS011;25303;48.896;13.342;2022-12-01T08:23:27;1.92;;;1.10;;
39612;SDS011;25303;48.896;13.342;2022-12-01T08:26:10;2.33;;;1.00;;
39612;SDS011;25303;48.896;13.342;2022-12-01T08:28:58;2.40;;;0.93;;
39612;SDS011;25303;48.896;13.342;2022-12-01T08:34:24;1.67;;;1.02;;
39612;SDS011;25303;48.896;13.342;2022-12-01T08:37:07;2.45;;;1.00;;
39612;SDS011;25303;48.896;13.342;2022-12-01T08:39:50;2.35;;;1.00;;
39612;SDS011;25303;48.896;13.342;2022-12-01T08:42:33;1.55;;;0.80;;
39612;SDS011;25303;48.896;13.342;2022-12-01T08:45:17;1.60;;;0.88;;
39612;SDS011;25303;48.896;13.342;2022-12-01T08:48:01;1.45;;;0.90;;
39612;SDS011;25303;48.896;13.342;2022-12-01T08:50:44;1.90;;;0.98;;
39612;SDS011;25303;48.896;13.342;2022-12-01T08:53:27;3.25;;;1.13;;
39612;SDS011;25303;48.896;13.342;2022-12-01T08:56:11;2.17;;;1.00;;
39612;SDS011;25303;48.896;13.342;2022-12-01T08:58:55;1.48;;;0.90;;
39612;SDS011;25303;48.896;13.342;2022-12-01T09:01:40;3.33;;;1.30;;
39612;SDS011;25303;48.896;13.342;2022-12-01T09:07:17;2.40;;;1.33;;
39612;SDS011;25303;48.896;13.342;2022-12-01T09:10:07;2.45;;;1.40;;
39612;SDS011;25303;48.896;13.342;2022-12-01T09:12:51;3.17;;;1.50;;
39612;SDS011;25303;48.896;13.342;2022-12-01T09:15:34;2.38;;;1.40;;
39612;SDS011;25303;48.896;13.342;2022-12-01T09:18:18;2.40;;;1.35;;
39612;SDS011;25303;48.896;13.342;2022-12-01T09:21:08;2.38;;;1.20;;
39612;SDS011;25303;48.896;13.342;2022-12-01T09:23:52;2.90;;;1.35;;
39612;SDS011;25303;48.896;13.342;2022-12-01T09:26:35;2.78;;;1.30;;
39612;SDS011;25303;48.896;13.342;2022-12-01T09:29:18;2.10;;;1.10;;
39612;SDS011;25303;48.896;13.342;2022-12-01T09:32:01;3.05;;;1.30;;
39612;SDS011;25303;48.896;13.342;2022-12-01T09:34:46;2.20;;;1.02;;
39612;SDS011;25303;48.896;13.342;2022-12-01T09:37:29;1.80;;;1.10;;
39612;SDS011;25303;48.896;13.342;2022-12-01T09:40:13;2.08;;;1.08;;
39612;SDS011;25303;48.896;13.342;2022-12-01T09:42:57;3.30;;;1.33;;
39612;SDS011;25303;48.896;13.342;2022-12-01T09:45:43;2.55;;;1.30;;
39612;SDS011;25303;48.896;13.342;2022-12-01T09:48:30;2.42;;;1.38;;
39612;SDS011;25303;48.896;13.342;2022-12-01T09:51:25;2.88;;;1.17;;
39612;SDS011;25303;48.896;13.342;2022-12-01T09:54:11;2.85;;;1.35;;
39612;SDS011;25303;48.896;13.342;2022-12-01T09:56:55;2.80;;;1.25;;
39612;SDS011;25303;48.896;13.342;2022-12-01T09:59:40;2.13;;;1.25;;
39612;SDS011;25303;48.896;13.342;2022-12-01T10:02:29;2.17;;;1.17;;
39612;SDS011;25303;48.896;13.342;2022-12-01T10:05:17;3.33;;;1.20;;
39612;SDS011;25303;48.896;13.342;2022-12-01T10:08:04;2.67;;;1.40;;
39612;SDS011;25303;48.896;13.342;2022-12-01T10:10:54;2.85;;;1.50;;
39612;SDS011;25303;48.896;13.342;2022-12-01T10:13:43;2.45;;;1.10;;
39612;SDS011;25303;48.896;13.342;2022-12-01T10:16:27;1.85;;;1.10;;
39612;SDS011;25303;48.896;13.342;2022-12-01T10:19:18;2.40;;;1.20;;
39612;SDS011;25303;48.896;13.342;2022-12-01T10:22:11;2.40;;;1.10;;
39612;SDS011;25303;48.896;13.342;2022-12-01T10:25:14;2.72;;;1.20;;
39612;SDS011;25303;48.896;13.342;2022-12-01T10:28:05;1.88;;;1.00;;
39612;SDS011;25303;48.896;13.342;2022-12-01T10:31:06;2.33;;;1.30;;
39612;SDS011;25303;48.896;13.342;2022-12-01T10:33:58;2.20;;;1.10;;
39612;SDS011;25303;48.896;13.342;2022-12-01T10:36:42;2.25;;;1.40;;
39612;SDS011;25303;48.896;13.342;2022-12-01T10:39:27;3.50;;;1.40;;
39612;SDS011;25303;48.896;13.342;2022-12-01T10:42:15;2.58;;;1.30;;
39612;SDS011;25303;48.896;13.342;2022-12-01T10:45:01;2.50;;;1.30;;
39612;SDS011;25303;48.896;13.342;2022-12-01T10:48:05;3.30;;;1.60;;
39612;SDS011;25303;48.896;13.342;2022-12-01T10:50:56;3.25;;;1.77;;
39612;SDS011;25303;48.896;13.342;2022-12-01T10:53:57;2.97;;;1.73;;
39612;SDS011;25303;48.896;13.342;2022-12-01T10:56:41;2.65;;;1.30;;
39612;SDS011;25303;48.896;13.342;2022-12-01T10:59:31;2.65;;;1.35;;
39612;SDS011;25303;48.896;13.342;2022-12-01T11:02:18;2.95;;;1.30;;
39612;SDS011;25303;48.896;13.342;2022-12-01T11:05:04;3.10;;;1.45;;
39612;SDS011;25303;48.896;13.342;2022-12-01T11:07:49;3.40;;;1.75;;
39612;SDS011;25303;48.896;13.342;2022-12-01T11:10:34;3.55;;;1.42;;
39612;SDS011;25303;48.896;13.342;2022-12-01T11:13:20;4.00;;;1.42;;
39612;SDS011;25303;48.896;13.342;2022-12-01T11:16:08;3.08;;;1.33;;
39612;SDS011;25303;48.896;13.342;2022-12-01T11:19:17;2.47;;;1.42;;
39612;SDS011;25303;48.896;13.342;2022-12-01T11:22:16;2.42;;;1.30;;
39612;SDS011;25303;48.896;13.342;2022-12-01T11:25:02;2.30;;;1.30;;
39612;SDS011;25303;48.896;13.342;2022-12-01T11:27:48;2.15;;;1.23;;
39612;SDS011;25303;48.896;13.342;2022-12-01T11:30:33;2.20;;;1.20;;
39612;SDS011;25303;48.896;13.342;2022-12-01T11:33:17;3.08;;;1.35;;
39612;SDS011;25303;48.896;13.342;2022-12-01T11:38:43;1.90;;;1.02;;
39612;SDS011;25303;48.896;13.342;2022-12-01T11:41:28;3.15;;;1.58;;
39612;SDS011;25303;48.896;13.342;2022-12-01T11:44:15;1.70;;;1.10;;
39612;SDS011;25303;48.896;13.342;2022-12-01T11:47:22;2.88;;;1.60;;
39612;SDS011;25303;48.896;13.342;2022-12-01T11:50:21;1.98;;;0.85;;
39612;SDS011;25303;48.896;13.342;2022-12-01T11:53:09;3.28;;;1.55;;
39612;SDS011;25303;48.896;13.342;2022-12-01T11:56:19;3.55;;;1.60;;
39612;SDS011;25303;48.896;13.342;2022-12-01T11:59:04;2.50;;;1.33;;
39612;SDS011;25303;48.896;13.342;2022-12-01T12:01:55;3.58;;;1.60;;
39612;SDS011;25303;48.896;13.342;2022-12-01T12:04:49;2.22;;;1.30;;
39612;SDS011;25303;48.896;13.342;2022-12-01T12:07:48;1.50;;;1.00;;
39612;SDS011;25303;48.896;13.342;2022-12-01T12:10:43;2.17;;;1.30;;
39612;SDS011;25303;48.896;13.342;2022-12-01T12:13:46;2.47;;;1.15;;
39612;SDS011;25303;48.896;13.342;2022-12-01T12:16:48;2.38;;;1.23;;
39612;SDS011;25303;48.896;13.342;2022-12-01T12:19:50;4.85;;;1.58;;
39612;SDS011;25303;48.896;13.342;2022-12-01T12:22:57;3.17;;;1.60;;
39612;SDS011;25303;48.896;13.342;2022-12-01T12:25:54;2.42;;;1.38;;
39612;SDS011;25303;48.896;13.342;2022-12-01T12:28:51;2.85;;;1.45;;
39612;SDS011;25303;48.896;13.342;2022-12-01T12:31:43;2.55;;;1.35;;
39612;SDS011;25303;48.896;13.342;2022-12-01T12:34:38;3.25;;;1.50;;
39612;SDS011;25303;48.896;13.342;2022-12-01T12:37:30;3.00;;;1.40;;
39612;SDS011;25303;48.896;13.342;2022-12-01T12:40:31;2.10;;;1.15;;
39612;SDS011;25303;48.896;13.342;2022-12-01T12:43:23;2.17;;;1.20;;
39612;SDS011;25303;48.896;13.342;2022-12-01T12:46:15;3.38;;;1.30;;
39612;SDS011;25303;48.896;13.342;2022-12-01T12:49:16;2.50;;;1.50;;
39612;SDS011;25303;48.896;13.342;2022-12-01T12:52:10;2.55;;;1.40;;
39612;SDS011;25303;48.896;13.342;2022-12-01T12:54:57;2.38;;;1.10;;
39612;SDS011;25303;48.896;13.342;2022-12-01T12:57:46;1.92;;;1.10;;
39612;SDS011;25303;48.896;13.342;2022-12-01T13:00:34;2.65;;;1.42;;
39612;SDS011;25303;48.896;13.342;2022-12-01T13:03:21;2.58;;;1.33;;
39612;SDS011;25303;48.896;13.342;2022-12-01T13:06:15;1.97;;;0.97;;
39612;SDS011;25303;48.896;13.342;2022-12-01T13:09:03;1.60;;;1.00;;
39612;SDS011;25303;48.896;13.342;2022-12-01T13:11:52;1.67;;;0.80;;
39612;SDS011;25303;48.896;13.342;2022-12-01T13:14:42;1.42;;;0.90;;
39612;SDS011;25303;48.896;13.342;2022-12-01T13:17:32;2.00;;;1.00;;
39612;SDS011;25303;48.896;13.342;2022-12-01T13:20:19;1.65;;;1.08;;
39612;SDS011;25303;48.896;13.342;2022-12-01T13:23:08;1.33;;;0.82;;
39612;SDS011;25303;48.896;13.342;2022-12-01T13:25:56;1.83;;;0.70;;
39612;SDS011;25303;48.896;13.342;2022-12-01T13:28:43;2.13;;;0.90;;
39612;SDS011;25303;48.896;13.342;2022-12-01T13:31:31;2.05;;;1.05;;
39612;SDS011;25303;48.896;13.342;2022-12-01T13:37:08;1.10;;;0.70;;
39612;SDS011;25303;48.896;13.342;2022-12-01T13:39:52;1.05;;;0.70;;
39612;SDS011;25303;48.896;13.342;2022-12-01T13:42:36;1.67;;;0.82;;
39612;SDS011;25303;48.896;13.342;2022-12-01T13:45:20;1.20;;;0.70;;
39612;SDS011;25303;48.896;13.342;2022-12-01T13:48:05;0.88;;;0.60;;
39612;SDS011;25303;48.896;13.342;2022-12-01T13:51:07;1.08;;;0.68;;
39612;SDS011;25303;48.896;13.342;2022-12-01T13:54:00;1.45;;;0.80;;
39612;SDS011;25303;48.896;13.342;2022-12-01T13:56:46;1.00;;;0.63;;
39612;SDS011;25303;48.896;13.342;2022-12-01T14:06:20;1.40;;;0.80;;
39612;SDS011;25303;48.896;13.342;2022-12-01T14:09:12;1.85;;;0.98;;
39612;SDS011;25303;48.896;13.342;2022-12-01T14:12:01;0.70;;;0.50;;
39612;SDS011;25303;48.896;13.342;2022-12-01T14:14:48;1.67;;;0.90;;
39612;SDS011;25303;48.896;13.342;2022-12-01T14:17:42;1.40;;;0.90;;
39612;SDS011;25303;48.896;13.342;2022-12-01T14:20:46;1.42;;;0.85;;
39612;SDS011;25303;48.896;13.342;2022-12-01T14:23:31;1.30;;;0.73;;
39612;SDS011;25303;48.896;13.342;2022-12-01T14:26:17;1.00;;;0.70;;
39612;SDS011;25303;48.896;13.342;2022-12-01T14:35:04;1.55;;;0.77;;
39612;SDS011;25303;48.896;13.342;2022-12-01T14:37:55;1.02;;;0.73;;
39612;SDS011;25303;48.896;13.342;2022-12-01T14:40:39;0.82;;;0.52;;
39612;SDS011;25303;48.896;13.342;2022-12-01T14:43:23;1.95;;;0.90;;
39612;SDS011;25303;48.896;13.342;2022-12-01T14:46:26;1.23;;;0.73;;
39612;SDS011;25303;48.896;13.342;2022-12-01T14:49:14;1.17;;;0.65;;
39612;SDS011;25303;48.896;13.342;2022-12-01T14:52:03;1.13;;;0.60;;
39612;SDS011;25303;48.896;13.342;2022-12-01T14:54:56;1.30;;;0.70;;
39612;SDS011;25303;48.896;13.342;2022-12-01T14:57:41;1.58;;;0.73;;
39612;SDS011;25303;48.896;13.342;2022-12-01T15:00:27;2.03;;;0.93;;
39612;SDS011;25303;48.896;13.342;2022-12-01T15:03:12;2.13;;;1.10;;
39612;SDS011;25303;48.896;13.342;2022-12-01T15:05:56;1.27;;;0.88;;
39612;SDS011;25303;48.896;13.342;2022-12-01T15:08:39;2.03;;;1.20;;
39612;SDS011;25303;48.896;13.342;2022-12-01T15:11:49;2.50;;;1.38;;
39612;SDS011;25303;48.896;13.342;2022-12-01T15:14:35;2.97;;;1.50;;
39612;SDS011;25303;48.896;13.342;2022-12-01T15:17:26;2.92;;;1.13;;
39612;SDS011;25303;48.896;13.342;2022-12-01T15:20:27;6.85;;;2.22;;
39612;SDS011;25303;48.896;13.342;2022-12-01T15:23:13;2.25;;;1.10;;
39612;SDS011;25303;48.896;13.342;2022-12-01T15:25:58;2.30;;;1.40;;
39612;SDS011;25303;48.896;13.342;2022-12-01T15:28:42;2.80;;;1.55;;
39612;SDS011;25303;48.896;13.342;2022-12-01T15:31:25;3.97;;;1.95;;
39612;SDS011;25303;48.896;13.342;2022-12-01T15:34:09;2.95;;;1.17;;
39612;SDS011;25303;48.896;13.342;2022-12-01T15:36:57;1.50;;;1.00;;
39612;SDS011;25303;48.896;13.342;2022-12-01T15:39:42;1.77;;;1.08;;
39612;SDS011;25303;48.896;13.342;2022-12-01T15:42:27;1.98;;;1.00;;
39612;SDS011;25303;48.896;13.342;2022-12-01T15:45:17;1.98;;;1.15;;
39612;SDS011;25303;48.896;13.342;2022-12-01T15:48:01;2.53;;;1.25;;
39612;SDS011;25303;48.896;13.342;2022-12-01T15:51:01;2.60;;;1.30;;
39612;SDS011;25303;48.896;13.342;2022-12-01T15:53:48;2.20;;;1.08;;
39612;SDS011;25303;48.896;13.342;2022-12-01T15:56:34;2.60;;;1.05;;
39612;SDS011;25303;48.896;13.342;2022-12-01T16:02:23;2.90;;;1.63;;
39612;SDS011;25303;48.896;13.342;2022-12-01T16:05:14;3.30;;;1.90;;
39612;SDS011;25303;48.896;13.342;2022-12-01T16:08:11;2.38;;;1.20;;
39612;SDS011;25303;48.896;13.342;2022-12-01T16:11:08;3.33;;;1.63;;
39612;SDS011;25303;48.896;13.342;2022-12-01T16:13:57;3.13;;;1.70;;
39612;SDS011;25303;48.896;13.342;2022-12-01T16:16:42;4.15;;;2.58;;
39612;SDS011;25303;48.896;13.342;2022-12-01T16:19:30;4.47;;;2.30;;
39612;SDS011;25303;48.896;13.342;2022-12-01T16:22:15;5.63;;;3.13;;
39612;SDS011;25303;48.896;13.342;2022-12-01T16:25:00;9.98;;;4.78;;
39612;SDS011;25303;48.896;13.342;2022-12-01T16:27:49;7.13;;;4.15;;
39612;SDS011;25303;48.896;13.342;2022-12-01T16:30:34;8.57;;;4.20;;
39612;SDS011;25303;48.896;13.342;2022-12-01T16:33:19;18.60;;;8.10;;
39612;SDS011;25303;48.896;13.342;2022-12-01T16:36:06;10.68;;;5.38;;
39612;SDS011;25303;48.896;13.342;2022-12-01T16:38:49;6.00;;;3.20;;
39612;SDS011;25303;48.896;13.342;2022-12-01T16:41:32;5.80;;;3.22;;
39612;SDS011;25303;48.896;13.342;2022-12-01T16:44:19;6.50;;;3.35;;
39612;SDS011;25303;48.896;13.342;2022-12-01T16:47:13;5.13;;;2.80;;
39612;SDS011;25303;48.896;13.342;2022-12-01T16:49:57;5.05;;;2.78;;
39612;SDS011;25303;48.896;13.342;2022-12-01T16:52:42;5.38;;;2.80;;
39612;SDS011;25303;48.896;13.342;2022-12-01T16:55:30;5.80;;;2.80;;
39612;SDS011;25303;48.896;13.342;2022-12-01T16:58:19;4.40;;;2.60;;
39612;SDS011;25303;48.896;13.342;2022-12-01T17:01:03;5.25;;;2.63;;
39612;SDS011;25303;48.896;13.342;2022-12-01T17:06:29;4.40;;;2.35;;
39612;SDS011;25303;48.896;13.342;2022-12-01T17:09:13;4.15;;;2.20;;
39612;SDS011;25303;48.896;13.342;2022-12-01T17:11:56;4.18;;;2.20;;
39612;SDS011;25303;48.896;13.342;2022-12-01T17:14:39;5.05;;;2.25;;